Aérodrome :
LOGIN :

S'inscrire | Disclaimer

   EN    FR    IT 

 










Légende :    VFR   VFR Marginal   IFR   IFR Intensif   IFR Très Intensif
Visi : 
Plafond : 
>= 8 km
>= 3000ft
5 à 8 km
1000 à 3000 ft
1500m à 5 km
500 à 1000 ft
800 à 1500m
200 à 500 ft
< 800m
< 200 ft
Symboles :   Orages  Brouillard  Fortes neiges  Fortes précipitations  Vent > 20 kt
SIGMETs :   Divers  Orages  Givrage  Turbulence  Onde Orograph.  Cendres Volcan.







- Altitude de l'aérodrome : 1674 ft
- Code IATA : BRN


LSZB - Bern Belp

DERNIER METAR :
  • 242350Z AUTO VRB03KT 9999 -DZ OVC090 13/13 Q1015

METARs EXPIRÉS :
  • 242320Z AUTO 19004KT 130V240 9999 -RA BKN090 13/13 Q1015
  • 242250Z AUTO 13003KT 100V230 5000 -RA BKN050 SCT070 13/13 Q1015
  • 242220Z AUTO 27003KT 250V340 7000 -RA BKN060 SCT080 13/13 Q1015
  • 242150Z AUTO 26003KT 200V290 9000 -RA BKN060 13/13 Q1015
  • 242120Z AUTO VRB01KT 9000 -RA BKN060 SCT080 14/13 Q1015

Prévision TAF périmée.
ATIS : +41 22 417 40 76
Pas de NOTAMs connus pour ce terrain.



MET'MAP, la Météo Aéronautique d'un coup d'oeil ! - Copyright ORBIFLY Décembre 2007 - Disclaimer

ORBIFLY MET'MAP TEAM :

Programmation & Développement : Alexandra Zaïnal
Conception & Développement : Baudouin d'Aumeries
Co-Programmation & Développement : Marc-Olivier Méhu
Soutien technique & logistique : Manuel Goepfert

Contact : metmap@orbifly.com




SOURCES & CREDITS :

   NOAA